createdAt,value
2018-09-10T00:04:12.340Z,10.24
2018-09-10T00:09:15.850Z,10.16
2018-09-10T00:14:19.342Z,10.22
2018-09-10T00:19:22.639Z,10.12
2018-09-10T00:24:25.830Z,10.11
2018-09-10T00:29:29.081Z,10.06
2018-09-10T00:34:32.233Z,9.92
2018-09-10T00:39:35.415Z,9.85
2018-09-10T00:44:38.744Z,9.81
2018-09-10T00:49:42.343Z,9.73
2018-09-10T00:54:45.849Z,9.67
2018-09-10T00:59:49.187Z,9.84
2018-09-10T01:04:52.438Z,9.98
2018-09-10T01:09:55.687Z,10.15
2018-09-10T01:14:58.940Z,10.26
2018-09-10T01:20:02.185Z,10.41
2018-09-10T01:25:05.366Z,10.51
2018-09-10T01:30:08.714Z,10.55
2018-09-10T01:35:11.971Z,10.54
2018-09-10T01:40:15.218Z,10.53
2018-09-10T01:45:18.555Z,10.50
2018-09-10T01:50:21.805Z,10.54
2018-09-10T01:55:25.145Z,10.53
2018-09-10T02:00:28.591Z,10.61
2018-09-10T02:05:31.724Z,10.66
2018-09-10T02:10:34.959Z,10.58
2018-09-10T02:15:38.705Z,10.59
2018-09-10T02:20:41.988Z,10.59
2018-09-10T02:25:46.219Z,10.61
2018-09-10T02:30:49.408Z,10.57
2018-09-10T02:35:52.697Z,10.53
2018-09-10T02:40:55.918Z,10.49
2018-09-10T02:45:59.248Z,10.58
2018-09-10T02:51:02.441Z,10.53
2018-09-10T02:56:05.576Z,10.51
2018-09-10T03:01:08.929Z,10.45
2018-09-10T03:06:12.414Z,10.48
2018-09-10T03:11:15.763Z,10.59
2018-09-10T03:16:18.898Z,10.47
2018-09-10T03:21:22.203Z,10.36
2018-09-10T03:26:25.379Z,10.19
2018-09-10T03:36:55.506Z,10.08
2018-09-10T03:42:04.360Z,10.07
2018-09-10T03:47:13.502Z,10.03
2018-09-10T03:52:23.179Z,9.96
2018-09-10T03:57:36.152Z,9.87
2018-09-10T04:02:39.360Z,9.86
2018-09-10T04:07:48.195Z,9.76
2018-09-10T04:12:56.952Z,9.71
2018-09-10T04:18:05.821Z,9.77
2018-09-10T04:23:14.779Z,9.81
2018-09-10T04:28:25.689Z,9.88
2018-09-10T04:33:34.616Z,9.92
2018-09-10T04:38:43.693Z,9.91
2018-09-10T04:43:52.786Z,9.98
2018-09-10T04:48:55.888Z,10.21
2018-09-10T04:54:04.753Z,10.46
2018-09-10T04:59:13.980Z,10.70
2018-09-10T05:04:22.810Z,10.84
2018-09-10T05:09:31.804Z,11.00
2018-09-10T05:14:40.816Z,11.25
2018-09-10T05:19:49.620Z,11.40
2018-09-10T05:24:52.757Z,11.62
2018-09-10T05:30:01.689Z,11.93
2018-09-10T05:35:12.943Z,12.44
2018-09-10T05:40:16.705Z,12.48
2018-09-10T05:45:25.431Z,12.55
2018-09-10T05:50:34.314Z,12.67
2018-09-10T05:55:43.360Z,13.34
2018-09-10T06:00:53.385Z,14.18
2018-09-10T06:06:02.976Z,14.53
2018-09-10T06:11:12.984Z,14.84
2018-09-10T06:16:21.591Z,15.38
2018-09-10T06:21:25.659Z,16.34
2018-09-10T06:26:34.393Z,17.14
2018-09-10T06:31:43.545Z,17.32
2018-09-10T06:36:53.332Z,17.65
2018-09-10T06:41:56.474Z,17.96
2018-09-10T06:47:05.144Z,18.32
2018-09-10T06:52:08.360Z,18.25
2018-09-10T06:57:12.104Z,18.00
2018-09-10T07:02:15.317Z,17.58
2018-09-10T07:07:18.543Z,17.53
2018-09-10T07:12:21.801Z,17.62
2018-09-10T07:17:25.076Z,17.79
2018-09-10T07:22:28.324Z,18.35
2018-09-10T07:27:31.573Z,18.78
2018-09-10T07:32:34.718Z,19.09
2018-09-10T07:37:38.112Z,19.19
2018-09-10T07:42:41.421Z,19.21
2018-09-10T07:47:44.695Z,19.50
2018-09-10T07:52:47.998Z,19.75
2018-09-10T07:57:51.266Z,19.97
2018-09-10T08:02:55.101Z,20.26
2018-09-10T08:07:58.319Z,20.63
2018-09-10T08:13:01.568Z,21.25
2018-09-10T08:18:05.129Z,21.77
2018-09-10T08:23:08.356Z,22.18
2018-09-10T08:28:11.919Z,22.68
2018-09-10T08:33:15.218Z,23.32
2018-09-10T08:38:20.552Z,24.16
2018-09-10T08:43:23.740Z,24.93
2018-09-10T08:48:27.076Z,25.55
2018-09-10T08:53:30.382Z,26.08
2018-09-10T08:58:33.756Z,26.28
2018-09-10T09:03:36.957Z,26.18
2018-09-10T09:08:40.529Z,26.01
2018-09-10T09:13:43.975Z,26.11
2018-09-10T09:18:47.406Z,25.93
2018-09-10T09:23:50.595Z,25.75
2018-09-10T09:28:54.054Z,25.66
2018-09-10T09:33:57.329Z,25.65
2018-09-10T09:39:00.653Z,25.93
2018-09-10T09:44:03.986Z,26.70
2018-09-10T09:49:07.204Z,26.94
2018-09-10T09:54:10.682Z,27.12
2018-09-10T09:59:13.942Z,28.27
2018-09-10T10:04:17.200Z,28.98
2018-09-10T10:09:20.398Z,28.62
2018-09-10T10:14:23.620Z,27.85
2018-09-10T10:19:27.115Z,27.41
2018-09-10T10:24:30.303Z,27.48
2018-09-10T10:29:34.885Z,28.28
2018-09-10T10:34:38.442Z,27.68
2018-09-10T10:39:42.655Z,27.46
2018-09-10T10:44:46.548Z,27.14
2018-09-10T10:49:49.905Z,27.25
2018-09-10T10:54:53.099Z,27.08
2018-09-10T10:59:56.408Z,26.87
2018-09-10T11:04:59.703Z,27.19
2018-09-10T11:10:03.026Z,26.93
2018-09-10T11:15:06.342Z,26.79
2018-09-10T11:20:09.612Z,27.28
2018-09-10T11:25:13.719Z,28.59
2018-09-10T11:30:16.899Z,29.22
2018-09-10T11:35:20.716Z,29.48
2018-09-10T11:40:23.929Z,29.72
2018-09-10T11:45:27.143Z,29.57
2018-09-10T11:50:30.352Z,29.42
2018-09-10T11:55:33.662Z,29.00
2018-09-10T12:00:37.645Z,28.74
2018-09-10T12:05:41.412Z,28.48
2018-09-10T12:10:44.616Z,28.23
2018-09-10T12:15:48.102Z,28.00
2018-09-10T12:20:51.341Z,28.11
2018-09-10T12:25:55.000Z,27.82
2018-09-10T12:30:58.231Z,28.32
2018-09-10T12:36:01.473Z,28.63
2018-09-10T12:41:04.868Z,28.00
2018-09-10T12:46:08.143Z,27.53
2018-09-10T12:51:11.482Z,26.96
2018-09-10T12:56:14.693Z,26.69
2018-09-10T13:01:17.928Z,26.65
2018-09-10T13:06:21.108Z,26.58
2018-09-10T13:11:24.305Z,26.95
2018-09-10T13:16:27.602Z,27.12
2018-09-10T13:21:30.947Z,27.65
2018-09-10T13:26:34.250Z,27.53
2018-09-10T13:31:37.509Z,27.24
2018-09-10T13:36:41.138Z,26.99
2018-09-10T13:41:44.547Z,26.90
2018-09-10T13:46:48.270Z,26.57
2018-09-10T13:51:51.594Z,26.39
2018-09-10T13:56:54.788Z,26.03
2018-09-10T14:01:58.220Z,25.85
2018-09-10T14:07:01.402Z,25.70
2018-09-10T14:12:04.748Z,26.30
2018-09-10T14:17:08.216Z,26.70
2018-09-10T14:22:11.752Z,26.89
2018-09-10T14:27:15.410Z,26.75
2018-09-10T14:32:18.733Z,26.25
2018-09-10T14:37:22.037Z,25.96
2018-09-10T14:42:25.304Z,25.70
2018-09-10T14:47:28.536Z,25.38
2018-09-10T14:52:31.911Z,25.01
2018-09-10T14:57:35.353Z,24.63
2018-09-10T15:02:38.615Z,24.53
2018-09-10T15:07:41.993Z,24.35
2018-09-10T15:12:46.070Z,24.13
2018-09-10T15:17:49.274Z,24.07
2018-09-10T15:22:52.635Z,24.15
2018-09-10T15:27:55.803Z,24.43
2018-09-10T15:32:59.023Z,24.89
2018-09-10T15:38:03.133Z,25.13
2018-09-10T15:43:06.599Z,25.17
2018-09-10T15:48:10.179Z,24.96
2018-09-10T15:53:13.575Z,24.75
2018-09-10T15:58:16.837Z,24.49
2018-09-10T16:03:20.128Z,24.35
2018-09-10T16:08:23.342Z,24.26
2018-09-10T16:13:26.526Z,24.35
2018-09-10T16:18:29.695Z,24.24
2018-09-10T16:23:33.383Z,24.01
2018-09-10T16:28:37.149Z,23.79
2018-09-10T16:33:40.407Z,23.45
2018-09-10T16:38:43.698Z,23.25
2018-09-10T16:43:46.975Z,23.05
2018-09-10T16:48:50.281Z,22.97
2018-09-10T16:53:53.605Z,22.83
2018-09-10T16:58:56.842Z,22.73
2018-09-10T17:04:00.082Z,22.47
2018-09-10T17:09:03.798Z,22.36
2018-09-10T17:14:07.159Z,22.29
2018-09-10T17:19:10.457Z,22.04
2018-09-10T17:24:13.758Z,21.93
